Time;durP1;ratioP1;P1;durP2;ratioP2;P2;SDS_P1;SDS_P2;PMS_P1;PMS_P2;Temp;Humidity;BMP_temperature;BMP_pressure;BME280_temperature;BME280_humidity;BME280_pressure;Samples;Min_cycle;Max_cycle;Signal;HPM_P1;HPM_P2
2021/04/12 00:01:50;;;;;;;1.80;1.70;;;5.70;71.40;;;;;;4985144;28;20319;-88
2021/04/12 00:04:29;;;;;;;3.60;1.80;;;5.60;71.90;;;;;;4995029;28;20177;-89
2021/04/12 00:07:16;;;;;;;1.60;1.37;;;5.70;72.50;;;;;;5007907;28;20243;-89
2021/04/12 00:09:58;;;;;;;1.60;1.50;;;5.60;73.10;;;;;;5004380;28;20212;-88
2021/04/12 00:12:43;;;;;;;3.33;1.60;;;5.60;70.60;;;;;;5006434;28;20235;-89
2021/04/12 00:15:22;;;;;;;4.23;1.50;;;5.60;71.60;;;;;;4998674;28;20274;-88
2021/04/12 00:17:49;;;;;;;3.90;1.70;;;;;;;;;;4997536;28;20208;-89
2021/04/12 00:20:34;;;;;;;3.40;1.37;;;5.70;68.90;;;;;;4999258;28;20184;-88
2021/04/12 00:23:07;;;;;;;0.80;0.80;;;5.70;69.60;;;;;;4997557;28;20224;-88
2021/04/12 00:25:42;;;;;;;1.90;1.50;;;5.70;67.00;;;;;;5008465;28;20213;-88
2021/04/12 00:28:21;;;;;;;1.70;1.60;;;5.70;67.20;;;;;;5022045;28;20227;-88
2021/04/12 00:30:57;;;;;;;1.90;1.80;;;5.70;67.70;;;;;;4997203;28;20589;-89
2021/04/12 00:33:49;;;;;;;1.40;1.30;;;5.70;68.10;;;;;;5002513;28;20589;-89
2021/04/12 00:36:20;;;;;;;1.60;1.50;;;5.70;68.50;;;;;;5003702;28;20217;-88
2021/04/12 00:38:58;;;;;;;1.40;1.30;;;5.60;67.50;;;;;;4997075;28;20195;-89
2021/04/12 00:41:48;;;;;;;1.70;1.47;;;5.60;68.70;;;;;;5002695;28;20187;-89
2021/04/12 00:44:39;;;;;;;1.53;1.20;;;5.60;69.20;;;;;;5000229;28;20232;-89
2021/04/12 00:47:33;;;;;;;1.93;1.73;;;5.60;69.80;;;;;;4991355;28;20224;-88
2021/04/12 00:50:10;;;;;;;2.20;1.40;;;5.60;66.90;;;;;;4998658;28;20224;-89
2021/04/12 00:53:13;;;;;;;1.77;1.67;;;5.60;67.20;;;;;;4998894;28;20282;-89
2021/04/12 00:55:54;;;;;;;1.40;1.30;;;5.60;68.00;;;;;;4992006;28;20319;-89
2021/04/12 00:58:26;;;;;;;1.87;1.70;;;5.60;68.50;;;;;;5002995;28;20230;-89
2021/04/12 01:01:27;;;;;;;2.40;1.73;;;5.60;69.20;;;;;;5018024;28;20223;-88
2021/04/12 01:04:08;;;;;;;1.90;1.20;;;5.50;68.20;;;;;;4941878;29;20231;-89
2021/04/12 01:06:44;;;;;;;1.53;1.43;;;5.50;68.40;;;;;;5002334;28;20200;-89
2021/04/12 01:09:28;;;;;;;1.37;1.27;;;5.50;67.90;;;;;;4994367;28;20223;-89
2021/04/12 01:12:13;;;;;;;1.50;1.40;;;5.50;65.80;;;;;;5002198;28;20219;-88
2021/04/12 01:15:07;;;;;;;1.57;1.47;;;5.30;66.50;;;;;;5006762;28;20279;-88
2021/04/12 01:17:42;;;;;;;1.93;1.43;;;5.60;65.30;;;;;;5016228;28;20188;-89
2021/04/12 01:20:26;;;;;;;1.30;1.20;;;5.50;65.10;;;;;;5004254;28;20208;-89
2021/04/12 01:23:26;;;;;;;3.90;1.30;;;5.50;65.90;;;;;;4992762;28;20220;-89
2021/04/12 01:26:13;;;;;;;2.20;1.23;;;5.50;66.40;;;;;;5002647;28;20221;-89
2021/04/12 01:28:58;;;;;;;1.50;1.40;;;5.50;66.30;;;;;;5017749;28;20294;-88
2021/04/12 01:31:43;;;;;;;2.30;1.47;;;5.60;66.60;;;;;;4992699;28;20228;-89
2021/04/12 01:34:28;;;;;;;1.33;1.23;;;5.50;64.90;;;;;;5015157;28;21897;-88
2021/04/12 01:36:59;;;;;;;1.23;1.13;;;5.50;65.90;;;;;;5000970;28;20232;-88
2021/04/12 01:40:19;;;;;;;1.77;1.60;;;5.50;65.80;;;;;;4998410;28;20220;-89
2021/04/12 01:42:54;;;;;;;1.00;1.00;;;5.40;66.60;;;;;;4923659;28;20226;-89
2021/04/12 01:45:28;;;;;;;3.43;1.70;;;5.40;64.90;;;;;;5007227;28;20323;-88
2021/04/12 01:48:07;;;;;;;1.50;1.40;;;5.40;65.50;;;;;;5001102;28;20264;-89
2021/04/12 01:50:35;;;;;;;1.43;1.33;;;5.40;65.90;;;;;;4998519;28;20220;-89
2021/04/12 01:53:13;;;;;;;2.77;1.33;;;5.30;65.00;;;;;;5013401;28;20191;-88
2021/04/12 01:56:10;;;;;;;1.07;1.07;;;5.30;65.60;;;;;;4996474;28;20223;-88
2021/04/12 01:58:39;;;;;;;1.27;1.10;;;5.40;63.40;;;;;;5016013;28;20244;-88
2021/04/12 02:01:08;;;;;;;1.63;1.30;;;5.40;64.20;;;;;;5002281;28;20225;-89
2021/04/12 02:04:19;;;;;;;2.03;1.13;;;5.40;64.80;;;;;;4990195;28;20229;-89
2021/04/12 02:06:56;;;;;;;2.23;1.13;;;5.40;64.30;;;;;;4995915;28;20195;-89
2021/04/12 02:09:46;;;;;;;1.27;1.13;;;5.30;63.00;;;;;;4995402;28;20255;-88
2021/04/12 02:12:37;;;;;;;1.37;1.27;;;5.30;63.60;;;;;;5014309;28;20212;-89
2021/04/12 02:15:25;;;;;;;1.77;1.20;;;5.30;64.70;;;;;;4990517;28;20220;-89
2021/04/12 02:18:04;;;;;;;1.40;1.30;;;5.30;64.70;;;;;;5003819;28;20196;-88
2021/04/12 02:21:08;;;;;;;0.97;0.97;;;5.30;64.70;;;;;;5005473;28;20181;-89
2021/04/12 02:23:47;;;;;;;1.63;1.27;;;5.20;64.70;;;;;;4992759;28;20220;-88
2021/04/12 02:26:21;;;;;;;0.80;0.80;;;5.20;64.90;;;;;;5009190;28;20235;-88
2021/04/12 02:29:18;;;;;;;1.50;1.40;;;5.20;64.60;;;;;;4997465;28;20216;-88
2021/04/12 02:32:21;;;;;;;2.07;1.60;;;5.20;64.90;;;;;;5014146;28;20227;-89
2021/04/12 02:35:04;;;;;;;2.00;1.80;;;5.30;65.70;;;;;;4999878;28;20264;-90
2021/04/12 02:37:49;;;;;;;1.67;1.50;;;5.30;66.10;;;;;;5014778;28;20239;-89
2021/04/12 02:40:34;;;;;;;1.60;1.50;;;5.30;66.60;;;;;;4994992;28;20216;-89
2021/04/12 02:43:51;;;;;;;2.07;1.93;;;5.30;65.90;;;;;;4995679;28;20228;-88
2021/04/12 02:46:41;;;;;;;3.13;2.17;;;5.20;65.90;;;;;;4964414;28;20504;-88
2021/04/12 02:49:32;;;;;;;2.60;1.70;;;5.30;65.60;;;;;;4988440;28;20205;-88
2021/04/12 02:52:35;;;;;;;3.07;1.20;;;5.20;64.60;;;;;;4999228;28;20232;-89
2021/04/12 02:55:13;;;;;;;1.47;1.37;;;5.20;64.40;;;;;;4994868;28;20216;-89
2021/04/12 02:58:07;;;;;;;1.27;1.23;;;5.20;62.80;;;;;;4992896;28;20247;-88
2021/04/12 03:00:39;;;;;;;2.47;1.60;;;5.20;59.80;;;;;;4989385;28;20185;-88
2021/04/12 03:03:32;;;;;;;2.00;1.80;;;5.10;60.80;;;;;;4997704;28;20219;-89
2021/04/12 03:06:31;;;;;;;1.70;1.43;;;5.20;61.30;;;;;;4993566;28;20193;-87
2021/04/12 03:09:15;;;;;;;1.40;1.30;;;5.20;62.30;;;;;;4995188;28;20188;-87
2021/04/12 03:11:52;;;;;;;2.37;1.70;;;5.10;62.60;;;;;;5001082;28;20212;-88
2021/04/12 03:14:44;;;;;;;2.53;1.83;;;5.20;63.30;;;;;;5000141;28;20196;-87
2021/04/12 03:17:40;;;;;;;2.30;1.20;;;5.20;61.50;;;;;;5015363;28;20246;-88
2021/04/12 03:20:23;;;;;;;1.70;1.57;;;5.00;62.80;;;;;;5006561;28;20414;-87
2021/04/12 03:23:01;;;;;;;1.53;1.43;;;5.10;63.30;;;;;;5006579;28;20290;-88
2021/04/12 03:25:26;;;;;;;2.27;1.77;;;5.10;62.80;;;;;;5022685;28;20224;-87
2021/04/12 03:28:18;;;;;;;4.23;1.63;;;5.30;63.40;;;;;;5009419;28;20215;-87
2021/04/12 03:30:53;;;;;;;1.70;1.60;;;5.10;63.30;;;;;;4995018;28;20247;-88
2021/04/12 03:33:31;;;;;;;2.10;1.90;;;5.10;62.70;;;;;;5006544;28;20199;-88
2021/04/12 03:36:09;;;;;;;1.57;1.33;;;5.10;62.10;;;;;;5017329;28;20197;-87
2021/04/12 03:39:08;;;;;;;3.03;1.43;;;5.10;60.80;;;;;;5020241;28;20193;-88
2021/04/12 03:41:47;;;;;;;1.57;1.47;;;5.10;62.10;;;;;;5005553;28;20212;-88
2021/04/12 03:44:25;;;;;;;2.23;1.80;;;5.10;62.50;;;;;;5000856;28;20189;-88
2021/04/12 03:47:28;;;;;;;1.80;1.63;;;5.10;62.40;;;;;;4993174;28;20219;-88
2021/04/12 03:50:19;;;;;;;1.97;1.87;;;5.00;62.10;;;;;;4994295;28;20211;-88
2021/04/12 03:53:04;;;;;;;1.70;1.60;;;5.00;62.80;;;;;;5000584;28;20229;-87
2021/04/12 03:55:55;;;;;;;1.90;1.63;;;5.00;62.80;;;;;;4995985;28;20199;-88
2021/04/12 03:58:41;;;;;;;1.97;1.47;;;5.10;60.20;;;;;;4998816;28;20204;-87
2021/04/12 04:01:38;;;;;;;1.57;1.47;;;5.10;60.90;;;;;;4994742;28;20212;-87
2021/04/12 04:04:19;;;;;;;1.93;1.70;;;5.00;62.00;;;;;;5004785;28;20220;-87
2021/04/12 04:07:17;;;;;;;3.10;2.07;;;5.00;63.10;;;;;;5023979;28;20267;-89
2021/04/12 04:09:52;;;;;;;1.93;1.80;;;5.00;64.50;;;;;;4995171;28;20224;-88
2021/04/12 04:12:32;;;;;;;4.77;2.57;;;4.90;67.60;;;;;;5019800;28;20236;-88
2021/04/12 04:15:26;;;;;;;6.60;3.30;;;4.90;68.60;;;;;;5000013;28;21853;-88
2021/04/12 04:18:03;;;;;;;5.37;3.17;;;4.90;70.90;;;;;;4992168;28;20180;-88
2021/04/12 04:20:52;;;;;;;5.77;3.93;;;4.90;73.10;;;;;;5005329;28;20200;-88
2021/04/12 04:23:40;;;;;;;4.13;3.63;;;4.80;74.60;;;;;;5003538;28;20217;-88
2021/04/12 04:26:27;;;;;;;6.00;4.00;;;4.80;76.10;;;;;;5002310;28;20212;-88
2021/04/12 04:29:30;;;;;;;5.70;4.00;;;4.80;76.80;;;;;;5011033;28;20235;-87
2021/04/12 04:32:17;;;;;;;6.07;4.30;;;4.80;76.80;;;;;;4996191;28;20285;-87
2021/04/12 04:34:46;;;;;;;6.33;3.30;;;4.80;76.90;;;;;;5019194;28;20194;-87
2021/04/12 04:37:34;;;;;;;5.23;3.33;;;6.70;78.10;;;;;;5002195;28;20212;-88
2021/04/12 04:40:23;;;;;;;5.00;4.23;;;4.80;75.90;;;;;;5018588;28;20192;-87
2021/04/12 04:43:23;;;;;;;4.53;4.13;;;4.70;76.10;;;;;;5007153;28;20235;-88
2021/04/12 04:46:19;;;;;;;4.77;4.27;;;4.70;74.90;;;;;;4999664;28;20223;-88
2021/04/12 04:49:23;;;;;;;4.77;3.97;;;4.70;74.90;;;;;;4999764;28;20270;-88
2021/04/12 04:52:11;;;;;;;6.33;3.90;;;4.60;76.10;;;;;;5001772;28;20216;-88
2021/04/12 04:55:14;;;;;;;6.33;4.37;;;4.60;76.00;;;;;;4998251;28;20227;-88
2021/04/12 04:58:03;;;;;;;3.60;3.30;;;4.50;76.10;;;;;;4997025;28;20268;-87
2021/04/12 05:00:28;;;;;;;4.73;4.20;;;4.50;76.10;;;;;;5002796;28;20213;-88
2021/04/12 05:03:08;;;;;;;7.27;4.43;;;4.50;75.80;;;;;;5002550;28;20201;-87
2021/04/12 05:05:49;;;;;;;5.00;4.00;;;4.50;76.50;;;;;;5017549;28;20719;-88
2021/04/12 05:08:52;;;;;;;4.97;3.83;;;4.50;76.60;;;;;;4995983;28;20212;-89
2021/04/12 05:11:41;;;;;;;4.97;4.00;;;4.50;76.10;;;;;;4997840;28;20614;-90
2021/04/12 05:14:48;;;;;;;4.57;3.50;;;4.50;76.60;;;;;;4998432;28;20243;-89
2021/04/12 05:17:36;;;;;;;3.43;2.83;;;4.50;76.60;;;;;;4964506;29;20284;-90
2021/04/12 05:20:20;;;;;;;4.87;4.33;;;4.50;76.60;;;;;;4949027;29;20228;-90
2021/04/12 05:23:23;;;;;;;4.53;4.13;;;4.40;76.00;;;;;;4949753;28;20306;-91
2021/04/12 05:26:13;;;;;;;4.70;4.00;;;4.40;76.60;;;;;;4948387;29;20280;-91
2021/04/12 05:29:04;;;;;;;5.03;3.80;;;4.40;76.50;;;;;;4945744;29;20194;-90
2021/04/12 05:31:52;;;;;;;5.03;3.67;;;4.40;76.50;;;;;;4960708;29;20226;-90
2021/04/12 05:34:38;;;;;;;4.20;3.27;;;4.50;76.60;;;;;;4943736;29;20194;-90
2021/04/12 05:37:22;;;;;;;5.33;4.70;;;4.60;74.80;;;;;;4945158;29;20230;-90
2021/04/12 05:40:24;;;;;;;5.07;3.97;;;4.60;75.30;;;;;;4944371;29;20194;-90
2021/04/12 05:43:21;;;;;;;4.20;3.27;;;4.60;74.40;;;;;;4941197;29;20296;-90
2021/04/12 05:46:16;;;;;;;7.33;3.80;;;4.70;73.30;;;;;;4948368;28;20228;-90
2021/04/12 05:49:15;;;;;;;3.23;3.03;;;4.60;73.50;;;;;;4943532;28;20289;-91
2021/04/12 05:52:10;;;;;;;3.90;3.50;;;4.60;73.90;;;;;;4958481;29;20531;-90
2021/04/12 05:55:03;;;;;;;4.20;2.80;;;4.70;73.70;;;;;;4987910;28;20224;-90
2021/04/12 05:57:57;;;;;;;4.40;3.13;;;4.80;72.20;;;;;;5005765;28;20220;-90
2021/04/12 06:00:50;;;;;;;3.90;3.37;;;4.80;71.50;;;;;;4999833;28;20216;-90
2021/04/12 06:03:43;;;;;;;3.67;3.37;;;4.80;71.20;;;;;;5003419;28;20197;-90
2021/04/12 06:06:48;;;;;;;3.30;3.00;;;4.80;71.70;;;;;;5002512;28;20204;-90
2021/04/12 06:09:33;;;;;;;4.43;3.07;;;5.00;70.00;;;;;;5005860;28;20220;-91
2021/04/12 06:11:59;;;;;;;3.97;2.63;;;5.00;68.10;;;;;;5014018;28;21815;-90
2021/04/12 06:15:05;;;;;;;3.20;2.90;;;5.10;68.80;;;;;;4995444;28;20254;-91
2021/04/12 06:17:49;;;;;;;3.13;2.80;;;5.10;68.80;;;;;;5002145;28;20265;-90
2021/04/12 06:21:14;;;;;;;2.90;2.60;;;5.10;68.20;;;;;;5006416;28;20280;-91
2021/04/12 06:23:56;;;;;;;2.90;2.70;;;5.00;67.90;;;;;;4834067;29;20297;-91
2021/04/12 06:26:52;;;;;;;2.73;2.47;;;5.00;67.90;;;;;;4856179;29;20237;-91
2021/04/12 06:29:49;;;;;;;4.43;3.10;;;5.00;68.70;;;;;;4867428;29;20229;-89
2021/04/12 06:33:04;;;;;;;3.33;2.83;;;4.90;68.10;;;;;;4868383;29;20261;-90
2021/04/12 06:36:11;;;;;;;3.90;3.07;;;4.90;68.20;;;;;;4869858;29;20304;-91
2021/04/12 06:39:15;;;;;;;3.90;3.00;;;5.00;68.00;;;;;;4846010;29;20217;-93
2021/04/12 06:42:26;;;;;;;3.70;2.43;;;5.00;67.50;;;;;;4774304;30;20232;-91
2021/04/12 06:45:13;;;;;;;3.57;2.90;;;5.00;68.30;;;;;;4780707;29;20697;-88
2021/04/12 06:47:56;;;;;;;1.90;1.77;;;5.10;68.00;;;;;;4789496;30;20691;-87
2021/04/12 06:50:49;;;;;;;2.20;1.97;;;5.10;66.30;;;;;;4792018;30;20306;-87
2021/04/12 06:53:53;;;;;;;4.53;2.63;;;5.10;65.00;;;;;;4801024;29;20232;-88
2021/04/12 06:56:57;;;;;;;2.80;2.60;;;5.10;65.80;;;;;;4845838;29;20294;-89
2021/04/12 06:59:29;;;;;;;2.63;2.40;;;5.30;65.80;;;;;;4833891;29;20237;-89
2021/04/12 07:02:20;;;;;;;2.77;2.53;;;5.50;64.80;;;;;;4882012;29;20200;-89
2021/04/12 07:05:23;;;;;;;2.80;2.40;;;5.40;63.20;;;;;;4862946;29;20201;-89
2021/04/12 07:08:29;;;;;;;3.97;2.80;;;5.30;64.10;;;;;;4864901;29;20230;-90
2021/04/12 07:11:39;;;;;;;1.87;1.77;;;5.30;62.40;;;;;;4880442;29;20621;-89
2021/04/12 07:14:52;;;;;;;4.10;2.20;;;5.30;61.30;;;;;;4873899;29;20224;-89
2021/04/12 07:17:24;;;;;;;2.93;2.63;;;5.30;60.80;;;;;;4921119;28;20210;-89
2021/04/12 07:20:25;;;;;;;2.43;2.23;;;5.30;61.50;;;;;;5021716;28;20680;-89
2021/04/12 07:23:19;;;;;;;4.47;2.97;;;5.50;61.40;;;;;;4944418;28;20230;-90
2021/04/12 07:26:10;;;;;;;2.57;2.47;;;5.50;61.40;;;;;;4989658;28;20599;-88
2021/04/12 07:28:51;;;;;;;4.50;2.30;;;6.20;60.60;;;;;;4999008;28;20197;-89
2021/04/12 07:31:35;;;;;;;3.00;2.70;;;6.20;61.20;;;;;;5009043;28;20775;-90
2021/04/12 07:34:12;;;;;;;5.50;2.80;;;6.20;60.30;;;;;;5008097;28;20540;-89
2021/04/12 07:36:57;;;;;;;2.80;2.37;;;6.10;60.10;;;;;;4997260;28;20219;-89
2021/04/12 07:39:57;;;;;;;2.40;2.20;;;6.10;58.30;;;;;;5026905;28;20215;-89
2021/04/12 07:42:41;;;;;;;2.40;2.20;;;6.20;59.40;;;;;;5018863;28;20271;-89
2021/04/12 07:45:23;;;;;;;3.93;1.90;;;5.90;57.00;;;;;;4990257;28;20216;-88
2021/04/12 07:48:10;;;;;;;1.90;1.70;;;5.80;58.60;;;;;;5028450;28;20213;-88
2021/04/12 07:50:54;;;;;;;3.10;2.50;;;5.80;58.50;;;;;;5008812;28;20224;-88
2021/04/12 07:53:22;;;;;;;2.27;1.90;;;5.80;58.30;;;;;;5004364;28;20312;-88
2021/04/12 07:56:20;;;;;;;1.57;1.47;;;7.50;59.30;;;;;;5019662;28;20295;-88
2021/04/12 07:59:14;;;;;;;3.27;2.30;;;6.00;57.50;;;;;;4942134;28;20711;-88
2021/04/12 08:02:14;;;;;;;2.53;2.33;;;6.10;57.50;;;;;;4995598;28;20220;-89
2021/04/12 08:05:11;;;;;;;2.07;1.87;;;6.20;56.50;;;;;;5006937;28;20247;-89
2021/04/12 08:08:14;;;;;;;3.63;2.57;;;6.20;56.50;;;;;;5001061;28;20216;-89
2021/04/12 08:11:19;;;;;;;2.33;2.13;;;6.20;56.60;;;;;;5016421;28;20216;-89
2021/04/12 08:14:06;;;;;;;4.63;2.57;;;6.30;55.70;;;;;;5016978;28;20220;-89
2021/04/12 08:16:51;;;;;;;3.30;2.47;;;6.40;56.20;;;;;;5024036;28;20204;-89
2021/04/12 08:19:34;;;;;;;3.20;2.73;;;6.50;54.90;;;;;;4999548;28;20243;-90
2021/04/12 08:22:27;;;;;;;3.07;2.17;;;6.70;52.60;;;;;;5016038;28;20255;-90
2021/04/12 08:25:08;;;;;;;2.13;1.93;;;6.60;53.00;;;;;;4977683;28;20228;-90
2021/04/12 08:27:42;;;;;;;4.00;2.37;;;6.50;53.00;;;;;;5024220;28;20755;-88
2021/04/12 08:30:27;;;;;;;2.50;2.00;;;6.60;51.60;;;;;;5017829;28;20226;-88
2021/04/12 08:33:23;;;;;;;2.47;2.27;;;6.60;51.70;;;;;;5024926;28;20250;-88
2021/04/12 08:36:11;;;;;;;2.13;2.03;;;6.60;51.30;;;;;;5008912;28;20199;-90
2021/04/12 08:38:53;;;;;;;2.73;1.77;;;6.70;50.60;;;;;;5006649;28;20314;-90
2021/04/12 08:41:41;;;;;;;3.03;1.37;;;6.70;49.40;;;;;;5009868;28;20232;-91
2021/04/12 08:44:40;;;;;;;2.20;1.70;;;6.80;50.30;;;;;;4987005;28;20233;-90
2021/04/12 08:47:22;;;;;;;2.10;1.87;;;6.80;48.90;;;;;;4994275;28;20221;-87
2021/04/12 08:50:29;;;;;;;1.73;1.60;;;6.80;49.20;;;;;;5028762;28;20279;-90
2021/04/12 08:53:04;;;;;;;4.00;2.67;;;6.80;50.70;;;;;;5002939;28;20228;-89
2021/04/12 08:55:47;;;;;;;2.00;1.67;;;6.90;50.80;;;;;;4991635;28;20283;-87
2021/04/12 08:58:29;;;;;;;4.13;2.90;;;6.90;51.90;;;;;;5022906;28;20220;-87
2021/04/12 09:01:41;;;;;;;3.00;2.10;;;6.90;50.60;;;;;;5014866;28;20192;-88
2021/04/12 09:04:25;;;;;;;3.53;2.77;;;6.90;51.80;;;;;;5001534;28;20315;-87
2021/04/12 09:07:21;;;;;;;6.43;2.90;;;6.80;51.00;;;;;;5023740;28;20234;-87
2021/04/12 09:10:07;;;;;;;6.10;2.67;;;6.60;49.60;;;;;;5013582;28;20196;-87
2021/04/12 09:12:54;;;;;;;5.00;2.83;;;6.60;51.10;;;;;;5003952;28;20290;-88
2021/04/12 09:15:45;;;;;;;4.07;3.03;;;6.60;51.80;;;;;;5003760;28;20223;-87
2021/04/12 09:18:40;;;;;;;5.50;2.70;;;7.00;51.90;;;;;;4998694;28;20196;-87
2021/04/12 09:21:12;;;;;;;4.37;3.17;;;7.20;50.00;;;;;;4992813;28;20243;-87
2021/04/12 09:24:07;;;;;;;3.27;2.53;;;7.30;49.50;;;;;;5024023;28;20227;-86
2021/04/12 09:26:57;;;;;;;3.60;3.13;;;7.40;48.10;;;;;;5006217;28;20278;-86
2021/04/12 09:30:01;;;;;;;4.37;2.13;;;7.60;46.50;;;;;;5007209;28;20228;-87
2021/04/12 09:32:51;;;;;;;1.43;1.33;;;7.10;42.70;;;;;;4998185;28;20303;-88
2021/04/12 09:35:35;;;;;;;1.53;1.43;;;7.10;44.80;;;;;;4998097;28;20191;-87
2021/04/12 09:38:39;;;;;;;2.63;1.70;;;7.20;44.30;;;;;;5003782;28;20212;-86
2021/04/12 09:41:17;;;;;;;1.63;1.53;;;7.20;44.00;;;;;;4993501;28;20266;-86
2021/04/12 09:44:18;;;;;;;1.83;1.57;;;7.80;43.70;;;;;;4996639;28;20228;-91
2021/04/12 09:46:52;;;;;;;4.63;1.50;;;7.80;41.10;;;;;;4948824;29;20179;-89
2021/04/12 09:49:55;;;;;;;2.70;2.03;;;7.70;40.20;;;;;;4946827;29;20273;-89
2021/04/12 09:52:54;;;;;;;1.83;1.50;;;7.60;41.00;;;;;;4943670;29;20303;-89
2021/04/12 09:55:38;;;;;;;1.60;1.50;;;7.60;43.50;;;;;;4968634;28;20197;-90
2021/04/12 09:58:15;;;;;;;1.13;0.80;;;7.50;43.80;;;;;;4958921;29;20218;-90
2021/04/12 10:01:02;;;;;;;3.80;1.70;;;7.40;44.60;;;;;;4963960;29;20185;-88
2021/04/12 10:03:47;;;;;;;2.27;1.67;;;7.20;43.70;;;;;;4943840;29;20312;-88
2021/04/12 10:06:36;;;;;;;1.97;1.33;;;7.30;42.90;;;;;;4946574;29;20240;-89
2021/04/12 10:09:15;;;;;;;1.07;0.97;;;7.40;41.80;;;;;;4944021;29;20252;-89
2021/04/12 10:11:59;;;;;;;2.30;0.80;;;7.60;38.50;;;;;;4942336;29;20694;-89
2021/04/12 10:14:30;;;;;;;1.77;0.93;;;7.60;39.00;;;;;;4956742;28;20196;-88
2021/04/12 10:17:06;;;;;;;1.47;1.27;;;7.80;38.10;;;;;;4941969;29;20210;-90
2021/04/12 10:20:06;;;;;;;1.03;0.90;;;7.80;36.40;;;;;;4940650;29;20235;-89
2021/04/12 10:22:50;;;;;;;1.30;1.20;;;8.30;37.10;;;;;;4897792;29;20219;-89
2021/04/12 10:25:22;;;;;;;1.30;1.20;;;8.30;38.10;;;;;;4959617;28;20293;-91
2021/04/12 10:27:50;;;;;;;1.03;1.00;;;8.40;37.70;;;;;;4944004;28;20213;-89
2021/04/12 10:30:25;;;;;;;0.93;0.93;;;8.60;36.80;;;;;;4946294;28;20686;-88
2021/04/12 10:32:58;;;;;;;1.00;1.00;;;8.60;36.20;;;;;;4945337;28;20257;-89
2021/04/12 10:35:48;;;;;;;2.93;1.27;;;8.60;35.50;;;;;;4951523;29;20224;-87
2021/04/12 10:38:16;;;;;;;4.07;1.57;;;8.60;34.40;;;;;;4954225;28;20240;-87
2021/04/12 10:41:04;;;;;;;1.17;0.93;;;8.70;35.90;;;;;;4966058;28;20220;-86
2021/04/12 10:43:44;;;;;;;2.03;1.73;;;8.80;34.90;;;;;;4943987;28;20280;-89
2021/04/12 10:46:29;;;;;;;1.80;1.70;;;8.90;36.30;;;;;;4950599;28;20250;-86
2021/04/12 10:49:21;;;;;;;3.30;1.30;;;8.60;35.20;;;;;;4945246;28;20224;-86
2021/04/12 10:52:04;;;;;;;2.10;1.23;;;8.30;35.80;;;;;;4946378;28;20226;-88
2021/04/12 10:54:35;;;;;;;2.50;1.40;;;8.20;35.30;;;;;;4946218;29;20230;-88
2021/04/12 10:57:12;;;;;;;1.57;1.47;;;8.50;33.60;;;;;;4941083;28;20198;-88
2021/04/12 10:59:59;;;;;;;1.80;1.70;;;8.50;35.10;;;;;;4983234;28;20699;-89
2021/04/12 11:02:50;;;;;;;1.87;1.40;;;8.40;36.90;;;;;;5007083;28;20693;-88
2021/04/12 11:05:20;;;;;;;2.00;1.50;;;8.40;36.90;;;;;;4988051;28;20192;-89
2021/04/12 11:08:06;;;;;;;6.17;2.07;;;8.50;39.20;;;;;;4979829;28;20236;-87
2021/04/12 11:11:05;;;;;;;2.17;1.97;;;8.40;40.20;;;;;;4978172;28;20241;-88
2021/04/12 11:13:37;;;;;;;2.87;1.67;;;8.20;41.30;;;;;;4975743;28;20716;-88
2021/04/12 11:16:46;;;;;;;2.57;1.70;;;8.10;42.10;;;;;;4991865;28;20198;-88
2021/04/12 11:22:55;;;;;;;2.00;1.80;;;8.30;39.70;;;;;;4980000;28;20922;-68
2021/04/12 11:25:23;;;;;;;1.70;1.60;;;8.40;39.60;;;;;;4937431;28;20311;-69
2021/04/12 11:28:33;;;;;;;1.93;1.47;;;8.50;38.30;;;;;;4944000;28;20229;-69
2021/04/12 11:31:19;;;;;;;2.73;1.37;;;8.70;36.10;;;;;;4869822;29;20244;-71
2021/04/12 11:34:06;;;;;;;2.00;1.40;;;8.90;37.30;;;;;;4930580;28;20226;-70
2021/04/12 11:36:51;;;;;;;2.63;1.20;;;9.40;33.20;;;;;;4939055;28;20244;-71
2021/04/12 11:39:26;;;;;;;1.27;1.10;;;9.50;32.50;;;;;;4940278;28;20268;-71
2021/04/12 11:41:56;;;;;;;1.00;1.00;;;10.20;33.20;;;;;;4940076;28;20261;-69
2021/04/12 11:44:28;;;;;;;0.87;0.87;;;11.60;29.70;;;;;;4942465;28;20202;-69
2021/04/12 11:47:16;;;;;;;1.17;1.03;;;11.50;29.50;;;;;;4934234;29;20233;-69
2021/04/12 11:49:50;;;;;;;0.90;0.77;;;11.90;27.00;;;;;;4944275;28;20235;-69
2021/04/12 11:52:27;;;;;;;0.97;0.80;;;12.30;26.60;;;;;;4937704;28;20246;-70
2021/04/12 11:55:21;;;;;;;0.70;0.70;;;13.20;27.00;;;;;;4940753;28;20690;-70
2021/04/12 11:58:01;;;;;;;1.03;1.03;;;14.70;27.30;;;;;;4986260;28;20220;-70
2021/04/12 12:00:33;;;;;;;0.90;0.90;;;15.80;25.30;;;;;;4981412;28;20239;-70
2021/04/12 12:03:26;;;;;;;0.80;0.80;;;16.90;22.90;;;;;;4987759;28;20245;-69
2021/04/12 12:06:30;;;;;;;2.13;0.97;;;16.60;22.40;;;;;;4985617;28;20204;-70
2021/04/12 12:09:00;;;;;;;1.17;1.00;;;16.50;24.40;;;;;;4978982;28;20257;-70
2021/04/12 12:11:56;;;;;;;1.13;0.70;;;16.10;25.40;;;;;;4988143;28;20240;-69
2021/04/12 12:14:39;;;;;;;1.10;1.10;;;15.20;24.90;;;;;;4989617;28;20262;-69
2021/04/12 12:17:15;;;;;;;1.37;1.27;;;13.60;25.30;;;;;;4984342;28;20256;-69
2021/04/12 12:20:13;;;;;;;1.30;1.07;;;11.60;27.40;;;;;;4983422;28;20228;-69
2021/04/12 12:22:59;;;;;;;1.00;1.00;;;11.40;28.40;;;;;;4978771;28;20268;-70
2021/04/12 12:25:27;;;;;;;1.37;1.33;;;10.40;30.30;;;;;;4983867;28;20233;-68
2021/04/12 12:28:10;;;;;;;1.70;1.60;;;10.30;32.50;;;;;;4982669;28;20711;-69
2021/04/12 12:31:04;;;;;;;2.67;1.20;;;10.20;30.40;;;;;;4970762;28;20227;-69
2021/04/12 12:34:03;;;;;;;0.77;0.77;;;10.10;31.00;;;;;;4962222;28;20685;-68
2021/04/12 12:36:55;;;;;;;1.27;1.20;;;10.20;31.10;;;;;;4979012;28;20221;-70
2021/04/12 12:39:27;;;;;;;1.30;1.20;;;9.80;33.00;;;;;;4981959;28;20225;-69
2021/04/12 12:41:54;;;;;;;0.67;0.67;;;9.50;33.40;;;;;;4975350;28;20901;-69
2021/04/12 12:44:23;;;;;;;1.07;0.97;;;9.40;34.20;;;;;;4981270;28;20192;-70
2021/04/12 12:46:49;;;;;;;0.80;0.80;;;9.50;34.20;;;;;;4982059;28;20222;-70
2021/04/12 12:49:25;;;;;;;1.30;0.80;;;9.60;34.40;;;;;;4980324;28;20266;-71
2021/04/12 12:51:53;;;;;;;1.20;1.10;;;9.60;34.50;;;;;;4984743;28;20232;-70
2021/04/12 12:54:44;;;;;;;0.77;0.77;;;9.50;33.60;;;;;;4981440;28;20727;-69
2021/04/12 12:57:20;;;;;;;1.90;0.63;;;9.20;35.60;;;;;;4963299;28;20216;-70
2021/04/12 12:59:58;;;;;;;0.80;0.80;;;9.10;37.60;;;;;;4978764;28;20238;-69
2021/04/12 13:02:26;;;;;;;1.07;0.97;;;9.50;36.90;;;;;;4983784;28;20840;-71
2021/04/12 13:04:57;;;;;;;0.53;0.53;;;11.60;31.00;;;;;;4982793;28;20313;-70
2021/04/12 13:07:23;;;;;;;0.53;0.53;;;;;;;;;;4982757;28;20300;-70
2021/04/12 13:10:17;;;;;;;0.40;0.40;;;13.70;28.90;;;;;;4986817;28;20642;-69
2021/04/12 13:12:47;;;;;;;0.80;0.80;;;13.80;28.40;;;;;;4981496;28;20735;-65
2021/04/12 13:15:19;;;;;;;0.90;0.90;;;12.10;30.00;;;;;;4961468;28;20259;-67
2021/04/12 13:17:45;;;;;;;1.50;1.40;;;11.20;34.90;;;;;;4976658;28;20266;-65
2021/04/12 13:20:20;;;;;;;1.40;1.30;;;10.50;37.70;;;;;;4978519;28;20622;-66
2021/04/12 13:22:50;;;;;;;1.23;1.20;;;10.30;39.60;;;;;;4968371;28;20315;-68
2021/04/12 13:25:19;;;;;;;1.03;1.03;;;10.10;41.10;;;;;;4979455;28;20693;-66
2021/04/12 13:27:49;;;;;;;2.23;0.83;;;9.30;42.40;;;;;;4968129;28;20227;-69
2021/04/12 13:30:21;;;;;;;0.80;0.80;;;9.90;42.80;;;;;;4976874;28;20229;-69
2021/04/12 13:33:00;;;;;;;1.90;1.27;;;10.70;40.10;;;;;;4976586;28;20220;-70
2021/04/12 13:35:30;;;;;;;0.90;0.90;;;12.40;37.20;;;;;;4964232;28;20234;-70
2021/04/12 13:38:09;;;;;;;0.67;0.67;;;13.40;34.20;;;;;;4980164;28;20327;-68
2021/04/12 13:40:41;;;;;;;1.10;1.00;;;12.50;34.70;;;;;;4977586;28;20253;-70
2021/04/12 13:43:09;;;;;;;1.10;1.10;;;11.20;35.40;;;;;;4980176;28;20683;-68
2021/04/12 13:45:36;;;;;;;1.10;1.10;;;10.60;37.80;;;;;;4979726;28;20224;-68
2021/04/12 13:48:11;;;;;;;0.83;0.83;;;10.60;37.30;;;;;;4978944;28;20224;-67
2021/04/12 13:50:58;;;;;;;0.60;0.60;;;10.70;35.60;;;;;;4978781;28;20682;-66
2021/04/12 13:53:40;;;;;;;2.27;0.93;;;10.80;35.90;;;;;;4978475;28;20221;-68
2021/04/12 13:56:09;;;;;;;0.70;0.70;;;12.10;32.40;;;;;;4978345;28;20257;-68
2021/04/12 13:58:42;;;;;;;0.60;0.60;;;13.30;30.00;;;;;;4978366;28;20236;-69
2021/04/12 14:01:13;;;;;;;1.87;0.90;;;15.10;28.10;;;;;;4976418;28;21108;-66
2021/04/12 14:04:03;;;;;;;0.87;0.87;;;15.10;27.30;;;;;;4965640;28;20228;-68
2021/04/12 14:06:55;;;;;;;0.70;0.70;;;13.40;28.60;;;;;;4968484;28;20228;-67
2021/04/12 14:09:44;;;;;;;1.00;0.90;;;12.20;29.80;;;;;;4959447;28;20675;-66
2021/04/12 14:12:25;;;;;;;1.37;1.00;;;11.60;31.20;;;;;;4978757;28;20275;-67
2021/04/12 14:15:00;;;;;;;1.00;0.90;;;11.30;32.60;;;;;;4979136;28;20189;-67
2021/04/12 14:17:39;;;;;;;1.20;1.10;;;11.30;32.50;;;;;;4978419;28;20207;-71
2021/04/12 14:20:30;;;;;;;0.80;0.80;;;10.70;35.00;;;;;;4973777;28;20325;-72
2021/04/12 14:23:02;;;;;;;0.80;0.80;;;10.70;35.90;;;;;;4957130;28;20274;-74
2021/04/12 14:25:41;;;;;;;1.13;1.03;;;11.00;34.50;;;;;;4974898;28;20248;-73
2021/04/12 14:28:14;;;;;;;1.00;0.90;;;12.60;32.60;;;;;;4993196;22;20236;-73
2021/04/12 14:30:42;;;;;;;0.87;0.87;;;13.60;30.70;;;;;;5100052;23;20289;-72
2021/04/12 14:33:11;;;;;;;1.20;0.73;;;14.30;28.10;;;;;;5018498;28;20763;-74
2021/04/12 14:35:43;;;;;;;0.80;0.80;;;14.40;27.50;;;;;;5006747;28;20204;-74